createdAt,value
2019-02-08T00:03:38.022Z,100512.09
2019-02-08T00:06:27.287Z,100523.81
2019-02-08T00:09:16.148Z,100518.83
2019-02-08T00:12:05.234Z,100520.37
2019-02-08T00:14:54.082Z,100521.67
2019-02-08T00:17:43.099Z,100518.44
2019-02-08T00:20:32.014Z,100477.53
2019-02-08T00:23:26.019Z,100518.84
2019-02-08T00:26:04.878Z,100518.33
2019-02-08T00:28:53.772Z,100514.86
2019-02-08T00:31:44.370Z,100521.48
2019-02-08T00:34:33.216Z,100439.64
2019-02-08T00:37:22.087Z,100518.59
2019-02-08T00:40:31.831Z,100523.61
2019-02-08T00:43:20.921Z,100511.55
2019-02-08T00:46:09.876Z,100520.69
2019-02-08T00:48:58.716Z,100526.52
2019-02-08T00:51:47.556Z,100522.16
2019-02-08T00:54:36.435Z,100521.33
2019-02-08T00:57:25.365Z,100512.28
2019-02-08T01:00:35.099Z,100521.98
2019-02-08T01:03:23.988Z,100512.13
2019-02-08T01:06:12.955Z,100518.74
2019-02-08T01:09:01.795Z,100503.15
2019-02-08T01:11:50.667Z,100515.03
2019-02-08T01:14:39.578Z,100472.53
2019-02-08T01:17:28.409Z,100513.57
2019-02-08T01:20:38.422Z,100516.72
2019-02-08T01:23:27.332Z,100517.36
2019-02-08T01:26:16.137Z,100508.31
2019-02-08T01:29:05.351Z,100514.78
2019-02-08T01:31:54.210Z,100508.31
2019-02-08T01:37:51.622Z,100504.50
2019-02-08T01:40:40.622Z,100512.73
2019-02-08T01:43:29.475Z,100508.95
2019-02-08T01:46:18.358Z,100518.56
2019-02-08T01:49:38.552Z,100504.34
2019-02-08T01:52:10.107Z,100507.09
2019-02-08T01:54:59.029Z,100501.66
2019-02-08T01:58:09.071Z,100503.38
2019-02-08T02:00:57.984Z,100503.92
2019-02-08T02:03:46.902Z,100484.84
2019-02-08T02:06:35.749Z,100506.73
2019-02-08T02:09:24.605Z,100499.62
2019-02-08T02:12:13.615Z,100452.08
2019-02-08T02:15:02.417Z,100499.38
2019-02-08T02:17:51.406Z,100504.63
2019-02-08T02:21:01.109Z,100503.50
2019-02-08T02:23:30.597Z,100505.45
2019-02-08T02:26:12.386Z,100506.58
2019-02-08T02:29:01.200Z,100506.58
2019-02-08T02:31:50.109Z,100438.61
2019-02-08T02:34:38.930Z,100504.63
2019-02-08T02:37:27.885Z,100503.25
2019-02-08T02:40:37.623Z,100503.25
2019-02-08T02:43:26.466Z,100512.56
2019-02-08T02:46:15.311Z,100512.47
2019-02-08T02:49:04.183Z,100505.84
2019-02-08T02:51:46.344Z,100509.41
2019-02-08T02:54:35.276Z,100510.24
2019-02-08T02:57:17.274Z,100509.66
2019-02-08T03:00:27.028Z,100505.84
2019-02-08T03:03:16.198Z,100503.69
2019-02-08T03:06:05.330Z,100508.34
2019-02-08T03:08:54.244Z,100508.34
2019-02-08T03:11:43.053Z,100509.72
2019-02-08T03:14:31.958Z,100432.88
2019-02-08T03:17:20.763Z,100501.73
2019-02-08T03:20:30.521Z,100500.11
2019-02-08T03:23:00.145Z,100502.80
2019-02-08T03:25:49.113Z,100504.41
2019-02-08T03:28:38.054Z,100506.85
2019-02-08T03:31:26.969Z,100498.86
2019-02-08T03:34:15.807Z,100497.73
2019-02-08T03:37:04.666Z,100494.16
2019-02-08T03:39:53.500Z,100496.11
2019-02-08T03:42:42.316Z,100499.98
2019-02-08T03:48:26.772Z,100494.01
2019-02-08T03:51:15.632Z,100489.38
2019-02-08T03:54:04.710Z,100483.64
2019-02-08T03:56:53.531Z,100485.66
2019-02-08T03:59:42.415Z,100419.16
2019-02-08T04:02:31.326Z,100478.95
2019-02-08T04:05:20.233Z,100482.33
2019-02-08T04:08:09.151Z,100481.84
2019-02-08T04:10:58.014Z,100481.36
2019-02-08T04:13:46.887Z,100473.52
2019-02-08T04:16:35.696Z,100476.02
2019-02-08T04:19:17.619Z,100476.91
2019-02-08T04:22:06.540Z,100472.55
2019-02-08T04:24:55.347Z,100434.73
2019-02-08T04:27:44.247Z,100473.38
2019-02-08T04:30:33.469Z,100464.31
2019-02-08T04:33:15.009Z,100466.75
2019-02-08T04:36:03.893Z,100445.66
2019-02-08T04:38:52.762Z,100419.07
2019-02-08T04:41:41.539Z,100465.28
2019-02-08T04:44:30.365Z,100467.23
2019-02-08T04:47:19.239Z,100434.89
2019-02-08T04:50:28.990Z,100466.17
2019-02-08T04:53:17.840Z,100461.50
2019-02-08T04:55:47.298Z,100432.97
2019-02-08T04:58:36.135Z,100460.63
2019-02-08T05:01:24.965Z,100421.99
2019-02-08T05:04:06.626Z,100457.54
2019-02-08T05:06:55.439Z,100465.77
2019-02-08T05:09:44.346Z,100465.23
2019-02-08T05:12:33.156Z,100458.03
2019-02-08T05:15:23.186Z,100460.77
2019-02-08T05:18:12.855Z,100462.39
2019-02-08T05:21:01.733Z,100459.40
2019-02-08T05:23:50.586Z,100459.64
2019-02-08T05:26:30.385Z,100414.89
2019-02-08T05:29:19.301Z,100456.02
2019-02-08T05:32:08.175Z,100455.13
2019-02-08T05:34:57.084Z,100449.88
2019-02-08T05:37:45.951Z,100449.88
2019-02-08T05:40:34.843Z,100441.88
2019-02-08T05:43:23.765Z,100444.88
2019-02-08T05:46:12.632Z,100448.69
2019-02-08T05:49:01.517Z,100445.36
2019-02-08T05:51:50.316Z,100453.84
2019-02-08T05:54:39.247Z,100407.97
2019-02-08T05:57:29.097Z,100441.82
2019-02-08T06:03:19.635Z,100433.58
2019-02-08T06:06:08.552Z,100441.00
2019-02-08T06:08:57.441Z,100438.59
2019-02-08T06:11:46.374Z,100433.41
2019-02-08T06:14:35.248Z,100420.73
2019-02-08T06:17:24.100Z,100434.53
2019-02-08T06:20:33.837Z,100439.48
2019-02-08T06:23:22.809Z,100438.66
2019-02-08T06:26:04.750Z,100443.02
2019-02-08T06:28:53.665Z,100441.64
2019-02-08T06:31:42.486Z,100439.14
2019-02-08T06:34:31.351Z,100381.97
2019-02-08T06:37:20.270Z,100425.90
2019-02-08T06:40:29.974Z,100444.23
2019-02-08T06:43:18.895Z,100439.22
2019-02-08T06:46:07.767Z,100441.08
2019-02-08T06:48:56.671Z,100446.81
2019-02-08T06:51:45.514Z,100439.09
2019-02-08T06:54:34.313Z,100444.83
2019-02-08T07:09:34.304Z,100450.40
2019-02-08T07:12:18.028Z,100452.81
2019-02-08T07:21:22.786Z,100451.03
2019-02-08T07:27:26.685Z,100452.09
2019-02-08T07:39:44.000Z,100437.69
2019-02-08T07:42:44.821Z,100445.62
2019-02-08T07:46:13.615Z,100439.23
2019-02-08T07:55:13.992Z,100435.19
2019-02-08T08:04:48.133Z,100448.45
2019-02-08T08:07:36.810Z,100451.99
2019-02-08T08:16:51.553Z,100448.91
2019-02-08T08:19:59.452Z,100455.13
2019-02-08T08:23:07.402Z,100455.77
2019-02-08T08:26:36.167Z,100444.84
2019-02-08T08:29:19.376Z,100448.25
2019-02-08T08:32:02.960Z,100450.34
2019-02-08T08:35:30.495Z,100381.55
2019-02-08T08:38:40.283Z,100448.78
2019-02-08T08:42:07.866Z,100440.36
2019-02-08T08:45:17.665Z,100437.54
2019-02-08T08:48:27.414Z,100440.19
2019-02-08T08:51:37.126Z,100373.57
2019-02-08T08:55:04.668Z,100443.37
2019-02-08T08:58:14.395Z,100437.52
2019-02-08T09:01:41.991Z,100436.39
2019-02-08T09:04:51.743Z,100442.95
2019-02-08T09:08:19.279Z,100441.70
2019-02-08T09:11:46.807Z,100429.80
2019-02-08T09:14:56.534Z,100436.02
2019-02-08T09:18:06.283Z,100431.48
2019-02-08T09:21:15.998Z,100428.34
2019-02-08T09:24:25.815Z,100355.02
2019-02-08T09:27:33.734Z,100424.26
2019-02-08T09:30:43.515Z,100417.03
2019-02-08T09:33:53.323Z,100412.83
2019-02-08T09:37:03.128Z,100415.70
2019-02-08T09:40:30.675Z,100416.66
2019-02-08T09:43:40.435Z,100411.31
2019-02-08T09:47:07.994Z,100412.50
2019-02-08T09:50:17.877Z,100398.30
2019-02-08T09:53:45.533Z,100394.56
2019-02-08T09:56:55.367Z,100385.29
2019-02-08T09:59:56.134Z,100365.63
2019-02-08T10:03:23.684Z,100382.14
2019-02-08T10:06:55.139Z,100381.70
2019-02-08T10:10:22.877Z,100371.55
2019-02-08T10:13:32.777Z,100372.17
2019-02-08T10:17:00.337Z,100370.83
2019-02-08T10:20:27.880Z,100305.00
2019-02-08T10:23:37.722Z,100358.70
2019-02-08T10:27:05.271Z,100361.83
2019-02-08T10:33:52.443Z,100359.86
2019-02-08T10:37:02.155Z,100353.21
2019-02-08T10:40:12.015Z,100353.45
2019-02-08T10:43:21.843Z,100363.09
2019-02-08T10:46:30.238Z,100342.66
2019-02-08T10:49:39.955Z,100350.25
2019-02-08T10:53:07.524Z,100355.08
2019-02-08T10:56:17.284Z,100322.66
2019-02-08T10:59:44.941Z,100333.97
2019-02-08T11:03:12.539Z,100337.66
2019-02-08T11:06:22.282Z,100335.60
2019-02-08T11:09:49.820Z,100334.14
2019-02-08T11:13:17.398Z,100332.63
2019-02-08T11:16:44.892Z,100328.97
2019-02-08T11:19:33.619Z,100314.77
2019-02-08T11:22:03.109Z,100317.17
2019-02-08T11:24:52.129Z,100307.20
2019-02-08T11:27:34.112Z,100303.85
2019-02-08T11:30:22.988Z,100299.03
2019-02-08T11:33:11.922Z,100289.85
2019-02-08T11:36:00.851Z,100222.36
2019-02-08T11:38:49.727Z,100282.17
2019-02-08T11:41:38.677Z,100289.30
2019-02-08T11:44:27.634Z,100280.67
2019-02-08T11:47:16.541Z,100276.47
2019-02-08T11:50:26.256Z,100284.98
2019-02-08T11:53:15.195Z,100271.42
2019-02-08T11:56:04.375Z,100258.66
2019-02-08T11:58:53.267Z,100266.50
2019-02-08T12:04:38.048Z,100243.86
2019-02-08T12:07:26.997Z,100247.53
2019-02-08T12:10:16.002Z,100240.87
2019-02-08T12:13:04.895Z,100235.81
2019-02-08T12:15:53.827Z,100177.91
2019-02-08T12:18:42.640Z,100234.11
2019-02-08T12:21:31.560Z,100182.03
2019-02-08T12:24:20.451Z,100233.87
2019-02-08T12:27:09.409Z,100240.41
2019-02-08T12:29:38.882Z,100226.06
2019-02-08T12:32:27.728Z,100225.70
2019-02-08T12:35:16.665Z,100222.71
2019-02-08T12:38:05.608Z,100220.19
2019-02-08T12:40:54.529Z,100214.44
2019-02-08T12:43:43.497Z,100141.72
2019-02-08T12:46:32.449Z,100131.52
2019-02-08T12:49:21.326Z,100208.70
2019-02-08T12:52:10.140Z,100202.95
2019-02-08T12:54:58.983Z,100200.78
2019-02-08T12:57:47.999Z,100200.33
2019-02-08T13:00:36.935Z,100189.99
2019-02-08T13:03:25.792Z,100197.67
2019-02-08T13:06:14.650Z,100181.12
2019-02-08T13:12:14.436Z,100181.12
2019-02-08T13:18:18.432Z,100174.23
2019-02-08T13:21:07.333Z,100150.81
2019-02-08T13:23:36.853Z,100183.43
2019-02-08T13:26:25.789Z,100167.35
2019-02-08T13:29:07.117Z,100176.31
2019-02-08T13:31:56.048Z,100128.17
2019-02-08T13:34:44.975Z,100173.56
2019-02-08T13:37:33.844Z,100161.59
2019-02-08T13:40:42.150Z,100162.28
2019-02-08T13:43:31.091Z,100158.84
2019-02-08T13:46:19.985Z,100146.53
2019-02-08T13:49:08.831Z,100153.55
2019-02-08T13:51:57.664Z,100144.23
2019-02-08T13:54:46.584Z,100131.97
2019-02-08T13:57:35.130Z,100135.41
2019-02-08T14:00:43.362Z,100137.58
2019-02-08T14:03:32.339Z,100136.80
2019-02-08T14:06:21.214Z,100124.49
2019-02-08T14:09:10.306Z,100132.76
2019-02-08T14:11:59.168Z,100134.95
2019-02-08T14:14:48.137Z,100101.19
2019-02-08T14:17:37.340Z,100123.70
2019-02-08T14:20:47.260Z,100115.66
2019-02-08T14:23:39.150Z,100105.43
2019-02-08T14:26:28.041Z,100097.62
2019-02-08T14:29:09.812Z,100080.53
2019-02-08T14:31:58.862Z,100076.84
2019-02-08T14:35:02.124Z,100078.45
2019-02-08T14:37:38.579Z,100006.16
2019-02-08T14:40:48.417Z,100058.94
2019-02-08T14:43:37.419Z,100049.52
2019-02-08T14:46:26.376Z,100027.14
2019-02-08T14:49:15.327Z,100047.44
2019-02-08T14:52:04.325Z,100048.45
2019-02-08T14:54:53.183Z,100047.89
2019-02-08T14:57:42.186Z,100015.64
2019-02-08T15:03:26.616Z,100038.70
2019-02-08T15:06:08.257Z,100039.97
2019-02-08T15:09:09.148Z,99980.67
2019-02-08T15:11:47.850Z,100021.58
2019-02-08T15:14:36.790Z,100021.58
2019-02-08T15:17:25.707Z,100009.30
2019-02-08T15:20:34.578Z,100010.45
2019-02-08T15:23:23.378Z,99990.94
2019-02-08T15:26:12.304Z,99992.31
2019-02-08T15:31:38.004Z,99989.34
2019-02-08T15:34:07.683Z,99984.75
2019-02-08T15:37:15.715Z,99988.88
2019-02-08T15:40:25.441Z,99978.19
2019-02-08T15:43:14.930Z,99976.36
2019-02-08T15:46:04.105Z,99968.80
2019-02-08T15:48:33.757Z,99971.69
2019-02-08T15:51:22.669Z,99967.66
2019-02-08T15:54:11.513Z,99956.52
2019-02-08T15:57:00.389Z,99960.66
2019-02-08T15:59:49.229Z,99953.77
2019-02-08T16:02:38.100Z,99889.25
2019-02-08T16:05:47.846Z,99960.43
2019-02-08T16:08:36.833Z,99956.30
2019-02-08T16:11:25.757Z,99953.31
2019-02-08T16:14:14.646Z,99873.13
2019-02-08T16:17:03.578Z,99945.75
2019-02-08T16:19:52.436Z,99938.18
2019-02-08T16:22:41.324Z,99937.50
2019-02-08T16:25:49.497Z,99933.59
2019-02-08T16:28:18.999Z,99928.00
2019-02-08T16:30:48.571Z,99933.39
2019-02-08T16:33:37.504Z,99918.15
2019-02-08T16:36:26.426Z,99920.45
2019-02-08T16:38:55.912Z,99921.02
2019-02-08T16:41:44.726Z,99915.97
2019-02-08T16:44:33.640Z,99915.52
2019-02-08T16:47:22.618Z,99910.01
2019-02-08T16:50:32.371Z,99905.88
2019-02-08T16:53:02.039Z,99905.66
2019-02-08T16:55:51.042Z,99896.47
2019-02-08T16:58:39.993Z,99847.30
2019-02-08T17:01:28.848Z,99892.79
2019-02-08T17:04:17.721Z,99887.17
2019-02-08T17:06:47.401Z,99816.00
2019-02-08T17:09:36.330Z,99876.61
2019-02-08T17:12:05.991Z,99872.25
2019-02-08T17:14:54.882Z,99867.30
2019-02-08T17:17:43.734Z,99854.93
2019-02-08T17:20:51.874Z,99856.98
2019-02-08T17:23:21.491Z,99861.22
2019-02-08T17:26:10.417Z,99862.52
2019-02-08T17:28:39.941Z,99858.16
2019-02-08T17:31:28.747Z,99843.94
2019-02-08T17:34:17.606Z,99836.60
2019-02-08T17:37:06.489Z,99826.97
2019-02-08T17:39:55.391Z,99825.59
2019-02-08T17:42:44.623Z,99821.23
2019-02-08T17:45:33.537Z,99747.27
2019-02-08T17:48:22.338Z,99817.66
2019-02-08T17:51:11.232Z,99804.71
2019-02-08T17:54:00.132Z,99803.56
2019-02-08T17:56:29.629Z,99803.42
2019-02-08T17:59:18.549Z,99805.25
2019-02-08T18:01:48.241Z,99810.87
2019-02-08T18:04:37.106Z,99799.48
2019-02-08T18:07:25.940Z,99799.15
2019-02-08T18:10:35.714Z,99805.56
2019-02-08T18:13:24.580Z,99801.66
2019-02-08T18:16:13.378Z,99796.81
2019-02-08T18:19:02.230Z,99793.14
2019-02-08T18:21:51.108Z,99791.98
2019-02-08T18:24:39.948Z,99799.09
2019-02-08T18:27:22.145Z,99768.52
2019-02-08T18:30:32.018Z,99794.03
2019-02-08T18:33:20.862Z,99790.49
2019-02-08T18:36:09.720Z,99779.36
2019-02-08T18:38:58.614Z,99787.37
2019-02-08T18:41:47.425Z,99715.17
2019-02-08T18:44:36.277Z,99778.40
2019-02-08T18:47:06.017Z,99771.73
2019-02-08T18:49:54.940Z,99773.11
2019-02-08T18:52:43.749Z,99740.64
2019-02-08T18:55:32.835Z,99774.72
2019-02-08T18:58:21.725Z,99759.23
2019-02-08T19:01:10.677Z,99751.75
2019-02-08T19:03:59.590Z,99738.42
2019-02-08T19:06:41.098Z,99734.73
2019-02-08T19:09:22.863Z,99729.44
2019-02-08T19:12:11.801Z,99727.84
2019-02-08T19:15:00.765Z,99716.48
2019-02-08T19:17:49.719Z,99712.23
2019-02-08T19:20:38.638Z,99716.59
2019-02-08T19:23:27.514Z,99703.59
2019-02-08T19:26:16.459Z,99711.52
2019-02-08T19:29:05.338Z,99715.06
2019-02-08T19:31:46.869Z,99715.88
2019-02-08T19:34:35.756Z,99640.92
2019-02-08T19:37:24.809Z,99692.68
2019-02-08T19:39:54.305Z,99679.69
2019-02-08T19:42:43.216Z,99677.30
2019-02-08T19:45:32.167Z,99673.17
2019-02-08T19:48:21.031Z,99673.73
2019-02-08T19:51:09.956Z,99659.95
2019-02-08T19:57:08.279Z,99662.38
2019-02-08T19:59:37.975Z,99665.34
2019-02-08T20:02:26.824Z,99664.41
2019-02-08T20:05:36.583Z,99665.20
2019-02-08T20:08:25.642Z,99653.61
2019-02-08T20:11:14.664Z,99656.59
2019-02-08T20:14:24.246Z,99657.97
2019-02-08T20:17:13.124Z,99661.16
2019-02-08T20:20:02.134Z,99650.36
2019-02-08T20:22:51.080Z,99640.13
2019-02-08T20:25:40.100Z,99644.25
2019-02-08T20:28:29.027Z,99635.77
2019-02-08T20:31:18.005Z,99632.23
2019-02-08T20:33:59.481Z,99629.47
2019-02-08T20:36:48.384Z,99628.88
2019-02-08T20:39:37.314Z,99628.31
2019-02-08T20:42:26.215Z,99621.42
2019-02-08T20:45:35.974Z,99621.05
2019-02-08T20:48:24.924Z,99618.73
2019-02-08T20:51:26.081Z,99620.71
2019-02-08T20:57:33.113Z,99600.38
2019-02-08T21:00:42.916Z,99598.22
2019-02-08T21:03:31.857Z,99593.49
2019-02-08T21:06:20.687Z,99582.47
2019-02-08T21:09:30.428Z,99573.64
2019-02-08T21:12:19.241Z,99558.27
2019-02-08T21:15:29.003Z,99539.75
2019-02-08T21:18:17.808Z,99535.41
2019-02-08T21:20:59.383Z,99542.89
2019-02-08T21:23:48.284Z,99539.91
2019-02-08T21:26:37.181Z,99496.05
2019-02-08T21:29:26.122Z,99534.75
2019-02-08T21:32:15.029Z,99523.72
2019-02-08T21:38:12.485Z,99423.09
2019-02-08T21:41:01.322Z,99491.10
2019-02-08T21:43:50.274Z,99494.58
2019-02-08T21:46:39.078Z,99483.09
2019-02-08T21:49:27.919Z,99472.79
2019-02-08T21:52:16.817Z,99442.41
2019-02-08T21:55:26.680Z,99477.36
2019-02-08T21:58:15.506Z,99481.63
2019-02-08T22:01:05.338Z,99467.41
2019-02-08T22:03:54.168Z,99466.75
2019-02-08T22:06:43.080Z,99465.38
2019-02-08T22:09:32.124Z,99460.02
2019-02-08T22:12:20.983Z,99450.01
2019-02-08T22:15:30.327Z,99459.65
2019-02-08T22:18:19.246Z,99450.67
2019-02-08T22:21:08.096Z,99452.27
2019-02-08T22:23:56.921Z,99449.38
2019-02-08T22:26:45.763Z,99454.30
2019-02-08T22:29:34.649Z,99438.80
2019-02-08T22:32:23.577Z,99446.13
2019-02-08T22:35:07.091Z,99439.08
2019-02-08T22:37:56.029Z,99438.14
2019-02-08T22:40:44.911Z,99443.86
2019-02-08T22:43:34.165Z,99440.77
2019-02-08T22:46:24.402Z,99429.62
2019-02-08T22:49:13.262Z,99425.70
2019-02-08T22:52:02.092Z,99434.41
2019-02-08T22:54:50.974Z,99357.23
2019-02-08T22:57:39.823Z,99363.11
2019-02-08T23:01:07.371Z,99408.45
2019-02-08T23:03:49.682Z,99389.67
2019-02-08T23:06:44.649Z,99390.75
2019-02-08T23:09:29.215Z,99381.33
2019-02-08T23:12:18.018Z,99379.95
2019-02-08T23:15:27.780Z,99372.03
2019-02-08T23:18:16.613Z,99368.28
2019-02-08T23:21:26.421Z,99359.80
2019-02-08T23:24:15.378Z,99372.20
2019-02-08T23:27:06.831Z,99374.14
2019-02-08T23:30:16.573Z,99370.00
2019-02-08T23:33:08.042Z,99376.11
2019-02-08T23:35:56.894Z,99378.48
2019-02-08T23:38:45.831Z,99374.36
2019-02-08T23:41:34.778Z,99368.06
2019-02-08T23:44:23.642Z,99292.17
2019-02-08T23:47:12.495Z,99354.50
2019-02-08T23:50:01.483Z,99347.19
2019-02-08T23:52:31.143Z,99351.53
2019-02-08T23:55:40.898Z,99340.08
2019-02-08T23:58:29.807Z,99335.95
